sensor_id;sensor_type;location;lat;lon;timestamp;temperature;humidity
15452;DHT22;7827;53.594;9.938;2023-04-25T00:01:48;8.30;99.90
15452;DHT22;7827;53.594;9.938;2023-04-25T00:04:18;8.20;99.90
15452;DHT22;7827;53.594;9.938;2023-04-25T00:06:46;8.20;99.90
15452;DHT22;7827;53.594;9.938;2023-04-25T00:09:14;8.20;99.90
15452;DHT22;7827;53.594;9.938;2023-04-25T00:11:44;8.20;99.90
15452;DHT22;7827;53.594;9.938;2023-04-25T00:14:12;8.20;99.90
15452;DHT22;7827;53.594;9.938;2023-04-25T00:16:40;8.10;99.90
15452;DHT22;7827;53.594;9.938;2023-04-25T00:19:10;8.10;99.90
15452;DHT22;7827;53.594;9.938;2023-04-25T00:21:39;8.00;99.90
15452;DHT22;7827;53.594;9.938;2023-04-25T00:24:08;8.00;99.90
15452;DHT22;7827;53.594;9.938;2023-04-25T00:26:36;8.00;99.90
15452;DHT22;7827;53.594;9.938;2023-04-25T00:29:05;8.00;99.90
15452;DHT22;7827;53.594;9.938;2023-04-25T00:31:34;7.90;99.90
15452;DHT22;7827;53.594;9.938;2023-04-25T00:34:02;8.00;99.90
15452;DHT22;7827;53.594;9.938;2023-04-25T00:36:30;8.00;99.90
15452;DHT22;7827;53.594;9.938;2023-04-25T00:38:58;7.90;99.90
15452;DHT22;7827;53.594;9.938;2023-04-25T00:41:26;7.90;99.90
15452;DHT22;7827;53.594;9.938;2023-04-25T00:43:56;8.00;99.90
15452;DHT22;7827;53.594;9.938;2023-04-25T00:46:26;8.00;99.90
15452;DHT22;7827;53.594;9.938;2023-04-25T00:48:55;7.90;99.90
15452;DHT22;7827;53.594;9.938;2023-04-25T00:51:23;7.90;99.90
15452;DHT22;7827;53.594;9.938;2023-04-25T00:53:52;7.80;99.90
15452;DHT22;7827;53.594;9.938;2023-04-25T00:56:21;7.80;99.90
15452;DHT22;7827;53.594;9.938;2023-04-25T00:58:49;7.80;99.90
15452;DHT22;7827;53.594;9.938;2023-04-25T01:01:20;7.70;99.90
15452;DHT22;7827;53.594;9.938;2023-04-25T01:03:51;7.70;99.90
15452;DHT22;7827;53.594;9.938;2023-04-25T01:06:21;7.70;99.90
15452;DHT22;7827;53.594;9.938;2023-04-25T01:08:51;7.80;99.90
15452;DHT22;7827;53.594;9.938;2023-04-25T01:11:19;7.70;99.90
15452;DHT22;7827;53.594;9.938;2023-04-25T01:13:47;7.70;99.90
15452;DHT22;7827;53.594;9.938;2023-04-25T01:16:19;7.70;99.90
15452;DHT22;7827;53.594;9.938;2023-04-25T01:18:51;7.70;99.90
15452;DHT22;7827;53.594;9.938;2023-04-25T01:21:21;7.70;99.90
15452;DHT22;7827;53.594;9.938;2023-04-25T01:23:51;7.70;99.90
15452;DHT22;7827;53.594;9.938;2023-04-25T01:26:21;7.70;99.90
15452;DHT22;7827;53.594;9.938;2023-04-25T01:28:50;7.70;99.90
15452;DHT22;7827;53.594;9.938;2023-04-25T01:31:19;7.60;99.90
15452;DHT22;7827;53.594;9.938;2023-04-25T01:33:47;7.60;99.90
15452;DHT22;7827;53.594;9.938;2023-04-25T01:36:16;7.60;99.90
15452;DHT22;7827;53.594;9.938;2023-04-25T01:38:47;7.50;99.90
15452;DHT22;7827;53.594;9.938;2023-04-25T01:41:15;7.50;99.90
15452;DHT22;7827;53.594;9.938;2023-04-25T01:43:44;7.50;99.90
15452;DHT22;7827;53.594;9.938;2023-04-25T01:46:13;7.50;99.90
15452;DHT22;7827;53.594;9.938;2023-04-25T01:48:41;7.50;99.90
15452;DHT22;7827;53.594;9.938;2023-04-25T01:51:09;7.50;99.90
15452;DHT22;7827;53.594;9.938;2023-04-25T01:53:38;7.50;99.90
15452;DHT22;7827;53.594;9.938;2023-04-25T01:56:08;7.50;99.90
15452;DHT22;7827;53.594;9.938;2023-04-25T01:58:38;7.50;81.80
15452;DHT22;7827;53.594;9.938;2023-04-25T02:01:41;7.50;90.10
15452;DHT22;7827;53.594;9.938;2023-04-25T02:04:18;7.50;75.00
15452;DHT22;7827;53.594;9.938;2023-04-25T02:06:46;7.40;57.90
15452;DHT22;7827;53.594;9.938;2023-04-25T02:09:15;7.40;62.30
15452;DHT22;7827;53.594;9.938;2023-04-25T02:11:53;7.40;55.20
15452;DHT22;7827;53.594;9.938;2023-04-25T02:14:28;7.40;31.40
15452;DHT22;7827;53.594;9.938;2023-04-25T02:17:03;7.40;12.60
15452;DHT22;7827;53.594;9.938;2023-04-25T02:19:32;7.40;4.00
15452;DHT22;7827;53.594;9.938;2023-04-25T02:22:01;7.40;1.00
15452;DHT22;7827;53.594;9.938;2023-04-25T02:24:29;7.40;17.90
15452;DHT22;7827;53.594;9.938;2023-04-25T02:27:00;7.40;1.00
15452;DHT22;7827;53.594;9.938;2023-04-25T02:29:29;7.30;1.00
15452;DHT22;7827;53.594;9.938;2023-04-25T02:31:58;7.40;1.00
15452;DHT22;7827;53.594;9.938;2023-04-25T02:34:26;7.40;1.00
15452;DHT22;7827;53.594;9.938;2023-04-25T02:36:54;7.40;1.00
15452;DHT22;7827;53.594;9.938;2023-04-25T02:39:23;7.40;1.00
15452;DHT22;7827;53.594;9.938;2023-04-25T02:41:52;7.40;1.00
15452;DHT22;7827;53.594;9.938;2023-04-25T02:44:22;7.40;1.00
15452;DHT22;7827;53.594;9.938;2023-04-25T02:46:50;7.30;1.00
15452;DHT22;7827;53.594;9.938;2023-04-25T02:49:19;7.30;1.00
15452;DHT22;7827;53.594;9.938;2023-04-25T02:51:47;7.20;1.00
15452;DHT22;7827;53.594;9.938;2023-04-25T02:54:15;7.20;1.00
15452;DHT22;7827;53.594;9.938;2023-04-25T02:56:46;7.20;1.00
15452;DHT22;7827;53.594;9.938;2023-04-25T02:59:21;7.20;1.00
15452;DHT22;7827;53.594;9.938;2023-04-25T03:01:50;7.10;1.00
15452;DHT22;7827;53.594;9.938;2023-04-25T03:04:18;7.20;1.00
15452;DHT22;7827;53.594;9.938;2023-04-25T03:06:47;7.20;1.00
15452;DHT22;7827;53.594;9.938;2023-04-25T03:09:16;7.20;1.00
15452;DHT22;7827;53.594;9.938;2023-04-25T03:11:45;7.10;1.00
15452;DHT22;7827;53.594;9.938;2023-04-25T03:14:13;7.10;1.00
15452;DHT22;7827;53.594;9.938;2023-04-25T03:16:43;7.10;1.00
15452;DHT22;7827;53.594;9.938;2023-04-25T03:19:12;7.00;99.90
15452;DHT22;7827;53.594;9.938;2023-04-25T03:21:43;7.00;99.90
15452;DHT22;7827;53.594;9.938;2023-04-25T03:24:12;7.00;1.00
15452;DHT22;7827;53.594;9.938;2023-04-25T03:26:41;6.90;1.00
15452;DHT22;7827;53.594;9.938;2023-04-25T03:29:09;6.90;34.10
15452;DHT22;7827;53.594;9.938;2023-04-25T03:31:39;6.90;99.90
15452;DHT22;7827;53.594;9.938;2023-04-25T03:34:10;6.70;99.90
15452;DHT22;7827;53.594;9.938;2023-04-25T03:36:38;6.70;1.00
15452;DHT22;7827;53.594;9.938;2023-04-25T03:39:08;6.70;99.90
15452;DHT22;7827;53.594;9.938;2023-04-25T03:41:37;6.70;1.00
15452;DHT22;7827;53.594;9.938;2023-04-25T03:44:11;6.60;1.00
15452;DHT22;7827;53.594;9.938;2023-04-25T03:46:39;6.60;1.00
15452;DHT22;7827;53.594;9.938;2023-04-25T03:49:09;6.60;1.00
15452;DHT22;7827;53.594;9.938;2023-04-25T03:51:57;6.60;1.00
15452;DHT22;7827;53.594;9.938;2023-04-25T03:54:26;6.60;99.90
15452;DHT22;7827;53.594;9.938;2023-04-25T03:57:01;6.60;99.90
15452;DHT22;7827;53.594;9.938;2023-04-25T03:59:33;6.50;1.00
15452;DHT22;7827;53.594;9.938;2023-04-25T04:02:02;6.60;99.90
15452;DHT22;7827;53.594;9.938;2023-04-25T04:04:34;6.60;1.00
15452;DHT22;7827;53.594;9.938;2023-04-25T04:07:03;6.50;1.00
15452;DHT22;7827;53.594;9.938;2023-04-25T04:09:34;6.50;1.00
15452;DHT22;7827;53.594;9.938;2023-04-25T04:12:07;6.50;1.00
15452;DHT22;7827;53.594;9.938;2023-04-25T04:14:37;6.50;83.00
15452;DHT22;7827;53.594;9.938;2023-04-25T04:17:06;6.40;99.90
15452;DHT22;7827;53.594;9.938;2023-04-25T04:19:36;6.40;99.90
15452;DHT22;7827;53.594;9.938;2023-04-25T04:22:09;6.30;1.00
15452;DHT22;7827;53.594;9.938;2023-04-25T04:24:38;6.40;69.00
15452;DHT22;7827;53.594;9.938;2023-04-25T04:27:08;6.30;1.00
15452;DHT22;7827;53.594;9.938;2023-04-25T04:29:43;6.30;99.90
15452;DHT22;7827;53.594;9.938;2023-04-25T04:32:43;6.30;1.00
15452;DHT22;7827;53.594;9.938;2023-04-25T04:35:15;6.40;1.00
15452;DHT22;7827;53.594;9.938;2023-04-25T04:37:44;6.40;99.90
15452;DHT22;7827;53.594;9.938;2023-04-25T04:40:14;6.40;1.00
15452;DHT22;7827;53.594;9.938;2023-04-25T04:42:51;6.50;1.00
15452;DHT22;7827;53.594;9.938;2023-04-25T04:45:46;6.50;99.90
15452;DHT22;7827;53.594;9.938;2023-04-25T04:48:23;6.50;36.30
15452;DHT22;7827;53.594;9.938;2023-04-25T04:51:17;6.60;1.00
15452;DHT22;7827;53.594;9.938;2023-04-25T04:54:01;6.60;16.10
15452;DHT22;7827;53.594;9.938;2023-04-25T04:56:51;6.60;1.00
15452;DHT22;7827;53.594;9.938;2023-04-25T04:59:49;6.60;1.00
15452;DHT22;7827;53.594;9.938;2023-04-25T05:02:41;6.60;1.00
15452;DHT22;7827;53.594;9.938;2023-04-25T05:05:28;6.60;1.00
15452;DHT22;7827;53.594;9.938;2023-04-25T05:08:21;6.50;1.00
15452;DHT22;7827;53.594;9.938;2023-04-25T05:11:14;6.60;1.00
15452;DHT22;7827;53.594;9.938;2023-04-25T05:14:08;6.60;1.00
15452;DHT22;7827;53.594;9.938;2023-04-25T05:16:43;6.50;99.90
15452;DHT22;7827;53.594;9.938;2023-04-25T05:19:37;6.40;1.00
15452;DHT22;7827;53.594;9.938;2023-04-25T05:22:17;6.30;1.00
15452;DHT22;7827;53.594;9.938;2023-04-25T05:25:01;6.30;1.00
15452;DHT22;7827;53.594;9.938;2023-04-25T05:27:53;6.20;1.00
15452;DHT22;7827;53.594;9.938;2023-04-25T05:30:39;6.30;1.00
15452;DHT22;7827;53.594;9.938;2023-04-25T05:33:13;6.30;99.90
15452;DHT22;7827;53.594;9.938;2023-04-25T05:35:44;6.30;1.00
15452;DHT22;7827;53.594;9.938;2023-04-25T05:38:13;6.40;1.00
15452;DHT22;7827;53.594;9.938;2023-04-25T05:41:18;6.50;99.90
15452;DHT22;7827;53.594;9.938;2023-04-25T05:44:00;6.50;1.00
15452;DHT22;7827;53.594;9.938;2023-04-25T05:46:44;6.50;1.00
15452;DHT22;7827;53.594;9.938;2023-04-25T05:49:21;6.60;99.90
15452;DHT22;7827;53.594;9.938;2023-04-25T05:52:04;6.60;99.90
15452;DHT22;7827;53.594;9.938;2023-04-25T05:54:46;6.70;1.00
15452;DHT22;7827;53.594;9.938;2023-04-25T05:57:23;6.80;1.00
15452;DHT22;7827;53.594;9.938;2023-04-25T05:59:53;6.80;99.90
15452;DHT22;7827;53.594;9.938;2023-04-25T06:02:26;6.80;1.00
15452;DHT22;7827;53.594;9.938;2023-04-25T06:04:54;6.90;1.00
15452;DHT22;7827;53.594;9.938;2023-04-25T06:07:23;6.90;1.00
15452;DHT22;7827;53.594;9.938;2023-04-25T06:09:51;7.00;56.60
15452;DHT22;7827;53.594;9.938;2023-04-25T06:12:21;7.00;1.00
15452;DHT22;7827;53.594;9.938;2023-04-25T06:14:51;7.00;99.90
15452;DHT22;7827;53.594;9.938;2023-04-25T06:17:19;6.90;1.00
15452;DHT22;7827;53.594;9.938;2023-04-25T06:19:49;7.00;1.00
15452;DHT22;7827;53.594;9.938;2023-04-25T06:22:18;7.00;1.00
15452;DHT22;7827;53.594;9.938;2023-04-25T06:24:46;7.00;1.00
15452;DHT22;7827;53.594;9.938;2023-04-25T06:27:14;6.90;99.90
15452;DHT22;7827;53.594;9.938;2023-04-25T06:29:44;7.00;99.90
15452;DHT22;7827;53.594;9.938;2023-04-25T06:32:13;7.00;1.00
15452;DHT22;7827;53.594;9.938;2023-04-25T06:34:41;7.00;99.90
15452;DHT22;7827;53.594;9.938;2023-04-25T06:37:10;7.00;29.10
15452;DHT22;7827;53.594;9.938;2023-04-25T06:39:38;7.10;99.90
15452;DHT22;7827;53.594;9.938;2023-04-25T06:42:07;7.20;99.90
15452;DHT22;7827;53.594;9.938;2023-04-25T06:44:59;7.10;94.90
15452;DHT22;7827;53.594;9.938;2023-04-25T06:47:29;7.00;1.00
15452;DHT22;7827;53.594;9.938;2023-04-25T06:49:58;7.10;1.00
15452;DHT22;7827;53.594;9.938;2023-04-25T06:52:27;7.10;85.30
15452;DHT22;7827;53.594;9.938;2023-04-25T06:54:55;7.20;1.00
15452;DHT22;7827;53.594;9.938;2023-04-25T06:57:35;7.20;1.00
15452;DHT22;7827;53.594;9.938;2023-04-25T07:00:24;7.20;1.00
15452;DHT22;7827;53.594;9.938;2023-04-25T07:02:53;7.30;1.00
15452;DHT22;7827;53.594;9.938;2023-04-25T07:05:21;7.40;99.90
15452;DHT22;7827;53.594;9.938;2023-04-25T07:07:50;7.50;99.90
15452;DHT22;7827;53.594;9.938;2023-04-25T07:10:18;7.60;1.00
15452;DHT22;7827;53.594;9.938;2023-04-25T07:12:48;7.70;99.90
15452;DHT22;7827;53.594;9.938;2023-04-25T07:15:16;7.60;1.00
15452;DHT22;7827;53.594;9.938;2023-04-25T07:17:49;7.60;99.90
15452;DHT22;7827;53.594;9.938;2023-04-25T07:20:17;7.50;1.00
15452;DHT22;7827;53.594;9.938;2023-04-25T07:22:45;7.40;1.00
15452;DHT22;7827;53.594;9.938;2023-04-25T07:25:13;7.40;1.00
15452;DHT22;7827;53.594;9.938;2023-04-25T07:27:42;7.50;89.40
15452;DHT22;7827;53.594;9.938;2023-04-25T07:30:16;7.50;1.00
15452;DHT22;7827;53.594;9.938;2023-04-25T07:32:44;7.50;80.50
15452;DHT22;7827;53.594;9.938;2023-04-25T07:35:14;7.50;1.00
15452;DHT22;7827;53.594;9.938;2023-04-25T07:37:42;7.50;1.00
15452;DHT22;7827;53.594;9.938;2023-04-25T07:40:14;7.50;1.00
15452;DHT22;7827;53.594;9.938;2023-04-25T07:42:50;7.60;1.00
15452;DHT22;7827;53.594;9.938;2023-04-25T07:45:27;7.70;1.00
15452;DHT22;7827;53.594;9.938;2023-04-25T07:47:56;7.70;62.30
15452;DHT22;7827;53.594;9.938;2023-04-25T07:50:25;7.80;99.90
15452;DHT22;7827;53.594;9.938;2023-04-25T07:52:53;8.00;1.00
15452;DHT22;7827;53.594;9.938;2023-04-25T07:55:27;8.00;1.00
15452;DHT22;7827;53.594;9.938;2023-04-25T07:58:03;8.00;1.00
15452;DHT22;7827;53.594;9.938;2023-04-25T08:00:32;8.10;1.00
15452;DHT22;7827;53.594;9.938;2023-04-25T08:03:22;8.00;99.90
15452;DHT22;7827;53.594;9.938;2023-04-25T08:05:52;8.00;99.90
15452;DHT22;7827;53.594;9.938;2023-04-25T08:08:21;7.90;1.00
15452;DHT22;7827;53.594;9.938;2023-04-25T08:10:49;8.00;99.90
15452;DHT22;7827;53.594;9.938;2023-04-25T08:13:17;8.00;1.00
15452;DHT22;7827;53.594;9.938;2023-04-25T08:15:45;8.00;72.20
15452;DHT22;7827;53.594;9.938;2023-04-25T08:18:14;8.10;1.00
15452;DHT22;7827;53.594;9.938;2023-04-25T08:20:45;8.10;1.00
15452;DHT22;7827;53.594;9.938;2023-04-25T08:23:15;8.10;99.90
15452;DHT22;7827;53.594;9.938;2023-04-25T08:25:51;8.00;99.90
15452;DHT22;7827;53.594;9.938;2023-04-25T08:28:24;8.10;1.00
15452;DHT22;7827;53.594;9.938;2023-04-25T08:30:53;8.20;93.60
15452;DHT22;7827;53.594;9.938;2023-04-25T08:33:21;8.50;1.00
15452;DHT22;7827;53.594;9.938;2023-04-25T08:36:01;8.80;99.90
15452;DHT22;7827;53.594;9.938;2023-04-25T08:38:32;8.90;1.00
15452;DHT22;7827;53.594;9.938;2023-04-25T08:41:02;8.60;1.00
15452;DHT22;7827;53.594;9.938;2023-04-25T08:43:32;8.40;1.00
15452;DHT22;7827;53.594;9.938;2023-04-25T08:46:02;8.20;99.90
15452;DHT22;7827;53.594;9.938;2023-04-25T08:48:42;8.40;99.90
15452;DHT22;7827;53.594;9.938;2023-04-25T08:51:17;8.40;99.90
15452;DHT22;7827;53.594;9.938;2023-04-25T08:53:53;8.40;1.00
15452;DHT22;7827;53.594;9.938;2023-04-25T08:56:28;8.40;1.00
15452;DHT22;7827;53.594;9.938;2023-04-25T08:58:57;8.40;82.60
15452;DHT22;7827;53.594;9.938;2023-04-25T09:01:25;8.60;1.00
15452;DHT22;7827;53.594;9.938;2023-04-25T09:03:56;8.70;99.90
15452;DHT22;7827;53.594;9.938;2023-04-25T09:06:25;8.60;1.00
15452;DHT22;7827;53.594;9.938;2023-04-25T09:09:01;8.30;1.00
15452;DHT22;7827;53.594;9.938;2023-04-25T09:11:32;8.10;1.00
15452;DHT22;7827;53.594;9.938;2023-04-25T09:14:11;8.00;1.00
15452;DHT22;7827;53.594;9.938;2023-04-25T09:17:04;8.00;99.90
15452;DHT22;7827;53.594;9.938;2023-04-25T09:19:42;8.00;1.00
15452;DHT22;7827;53.594;9.938;2023-04-25T09:22:30;8.00;1.00
15452;DHT22;7827;53.594;9.938;2023-04-25T09:25:02;8.00;1.00
15452;DHT22;7827;53.594;9.938;2023-04-25T09:27:32;8.20;1.00
15452;DHT22;7827;53.594;9.938;2023-04-25T09:30:16;8.20;1.00
15452;DHT22;7827;53.594;9.938;2023-04-25T09:33:09;8.30;1.00
15452;DHT22;7827;53.594;9.938;2023-04-25T09:35:44;8.40;1.00
15452;DHT22;7827;53.594;9.938;2023-04-25T09:38:41;8.30;1.00
15452;DHT22;7827;53.594;9.938;2023-04-25T09:41:22;7.70;1.00
15452;DHT22;7827;53.594;9.938;2023-04-25T09:43:56;7.50;99.90
15452;DHT22;7827;53.594;9.938;2023-04-25T09:46:35;7.40;1.00
15452;DHT22;7827;53.594;9.938;2023-04-25T09:49:14;7.30;1.00
15452;DHT22;7827;53.594;9.938;2023-04-25T09:52:16;7.40;99.90
15452;DHT22;7827;53.594;9.938;2023-04-25T09:54:57;7.50;5.60
15452;DHT22;7827;53.594;9.938;2023-04-25T09:57:33;7.70;99.90
15452;DHT22;7827;53.594;9.938;2023-04-25T10:00:07;8.10;99.90
15452;DHT22;7827;53.594;9.938;2023-04-25T10:02:42;8.40;1.00
15452;DHT22;7827;53.594;9.938;2023-04-25T10:05:35;8.60;1.00
15452;DHT22;7827;53.594;9.938;2023-04-25T10:08:05;8.90;1.00
15452;DHT22;7827;53.594;9.938;2023-04-25T10:10:35;8.80;1.00
15452;DHT22;7827;53.594;9.938;2023-04-25T10:13:06;8.90;99.90
15452;DHT22;7827;53.594;9.938;2023-04-25T10:15:35;9.10;1.00
15452;DHT22;7827;53.594;9.938;2023-04-25T10:18:06;9.10;1.00
15452;DHT22;7827;53.594;9.938;2023-04-25T10:20:35;8.90;59.30
15452;DHT22;7827;53.594;9.938;2023-04-25T10:23:11;8.90;1.00
15452;DHT22;7827;53.594;9.938;2023-04-25T10:25:42;8.90;1.00
15452;DHT22;7827;53.594;9.938;2023-04-25T10:28:12;8.80;1.00
15452;DHT22;7827;53.594;9.938;2023-04-25T10:30:59;8.90;23.50
15452;DHT22;7827;53.594;9.938;2023-04-25T10:33:35;9.00;9.40
15452;DHT22;7827;53.594;9.938;2023-04-25T10:36:15;9.20;1.00
15452;DHT22;7827;53.594;9.938;2023-04-25T10:38:46;9.10;1.00
15452;DHT22;7827;53.594;9.938;2023-04-25T10:41:18;9.10;2.30
15452;DHT22;7827;53.594;9.938;2023-04-25T10:43:58;9.30;99.90
15452;DHT22;7827;53.594;9.938;2023-04-25T10:46:29;9.20;1.00
15452;DHT22;7827;53.594;9.938;2023-04-25T10:48:59;9.40;1.00
15452;DHT22;7827;53.594;9.938;2023-04-25T10:51:30;9.60;74.50
15452;DHT22;7827;53.594;9.938;2023-04-25T10:54:19;9.70;99.90
15452;DHT22;7827;53.594;9.938;2023-04-25T10:56:52;9.60;99.90
15452;DHT22;7827;53.594;9.938;2023-04-25T10:59:25;9.50;1.00
15452;DHT22;7827;53.594;9.938;2023-04-25T11:01:53;9.20;1.00
15452;DHT22;7827;53.594;9.938;2023-04-25T11:04:23;9.10;1.00
15452;DHT22;7827;53.594;9.938;2023-04-25T11:07:13;9.10;1.00
15452;DHT22;7827;53.594;9.938;2023-04-25T11:09:51;9.20;1.00
15452;DHT22;7827;53.594;9.938;2023-04-25T11:12:20;9.30;1.00
15452;DHT22;7827;53.594;9.938;2023-04-25T11:14:49;9.20;1.00
15452;DHT22;7827;53.594;9.938;2023-04-25T11:17:18;9.10;1.00
15452;DHT22;7827;53.594;9.938;2023-04-25T11:19:48;9.10;99.90
15452;DHT22;7827;53.594;9.938;2023-04-25T11:22:16;9.10;99.90
15452;DHT22;7827;53.594;9.938;2023-04-25T11:24:45;9.10;99.90
15452;DHT22;7827;53.594;9.938;2023-04-25T11:27:13;9.00;1.00
15452;DHT22;7827;53.594;9.938;2023-04-25T11:29:42;9.00;99.90
15452;DHT22;7827;53.594;9.938;2023-04-25T11:32:11;8.90;1.00
15452;DHT22;7827;53.594;9.938;2023-04-25T11:34:43;8.70;99.90
15452;DHT22;7827;53.594;9.938;2023-04-25T11:37:13;8.30;99.90
15452;DHT22;7827;53.594;9.938;2023-04-25T11:39:45;8.10;1.00
15452;DHT22;7827;53.594;9.938;2023-04-25T11:42:14;8.00;99.90
15452;DHT22;7827;53.594;9.938;2023-04-25T11:44:42;7.90;1.00
15452;DHT22;7827;53.594;9.938;2023-04-25T11:47:12;7.90;99.90
15452;DHT22;7827;53.594;9.938;2023-04-25T11:49:41;8.20;1.00
15452;DHT22;7827;53.594;9.938;2023-04-25T11:52:09;8.60;99.90
15452;DHT22;7827;53.594;9.938;2023-04-25T11:54:38;9.00;1.00
15452;DHT22;7827;53.594;9.938;2023-04-25T11:57:07;9.10;99.90
15452;DHT22;7827;53.594;9.938;2023-04-25T11:59:35;9.30;1.00
15452;DHT22;7827;53.594;9.938;2023-04-25T12:02:03;9.40;1.00
15452;DHT22;7827;53.594;9.938;2023-04-25T12:04:35;9.70;99.90
15452;DHT22;7827;53.594;9.938;2023-04-25T12:07:04;10.10;99.90
15452;DHT22;7827;53.594;9.938;2023-04-25T12:09:33;10.30;99.90
15452;DHT22;7827;53.594;9.938;2023-04-25T12:12:02;10.20;1.00
15452;DHT22;7827;53.594;9.938;2023-04-25T12:14:33;10.30;1.00
15452;DHT22;7827;53.594;9.938;2023-04-25T12:17:04;10.30;99.90
15452;DHT22;7827;53.594;9.938;2023-04-25T12:19:37;10.40;99.90
15452;DHT22;7827;53.594;9.938;2023-04-25T12:22:19;10.50;1.00
15452;DHT22;7827;53.594;9.938;2023-04-25T12:24:49;10.50;1.00
15452;DHT22;7827;53.594;9.938;2023-04-25T12:27:18;10.80;1.00
15452;DHT22;7827;53.594;9.938;2023-04-25T12:29:53;10.70;1.00
15452;DHT22;7827;53.594;9.938;2023-04-25T12:32:22;10.60;1.00
15452;DHT22;7827;53.594;9.938;2023-04-25T12:34:53;10.40;99.90
15452;DHT22;7827;53.594;9.938;2023-04-25T12:37:21;10.30;99.90
15452;DHT22;7827;53.594;9.938;2023-04-25T12:39:50;10.40;1.00
15452;DHT22;7827;53.594;9.938;2023-04-25T12:42:18;10.40;1.00
15452;DHT22;7827;53.594;9.938;2023-04-25T12:44:46;10.50;1.00
15452;DHT22;7827;53.594;9.938;2023-04-25T12:47:14;10.40;1.00
15452;DHT22;7827;53.594;9.938;2023-04-25T12:49:43;10.20;1.00
15452;DHT22;7827;53.594;9.938;2023-04-25T12:52:12;10.00;1.00
15452;DHT22;7827;53.594;9.938;2023-04-25T12:54:41;9.80;99.90
15452;DHT22;7827;53.594;9.938;2023-04-25T12:57:09;9.60;1.00
15452;DHT22;7827;53.594;9.938;2023-04-25T12:59:38;9.40;1.00
15452;DHT22;7827;53.594;9.938;2023-04-25T13:02:06;9.40;1.00
15452;DHT22;7827;53.594;9.938;2023-04-25T13:04:34;9.50;1.00
15452;DHT22;7827;53.594;9.938;2023-04-25T13:07:03;9.60;99.90
15452;DHT22;7827;53.594;9.938;2023-04-25T13:09:33;9.40;99.90
15452;DHT22;7827;53.594;9.938;2023-04-25T13:12:01;9.40;1.00
15452;DHT22;7827;53.594;9.938;2023-04-25T13:14:31;9.20;1.00
15452;DHT22;7827;53.594;9.938;2023-04-25T13:16:59;8.80;1.00
15452;DHT22;7827;53.594;9.938;2023-04-25T13:19:27;8.30;99.90
15452;DHT22;7827;53.594;9.938;2023-04-25T13:21:55;7.50;1.00
15452;DHT22;7827;53.594;9.938;2023-04-25T13:24:25;7.10;1.00
15452;DHT22;7827;53.594;9.938;2023-04-25T13:26:55;7.10;99.90
15452;DHT22;7827;53.594;9.938;2023-04-25T13:29:23;7.20;1.00
15452;DHT22;7827;53.594;9.938;2023-04-25T13:31:52;7.20;99.90
15452;DHT22;7827;53.594;9.938;2023-04-25T13:34:20;7.20;1.00
15452;DHT22;7827;53.594;9.938;2023-04-25T13:36:48;7.40;1.00
15452;DHT22;7827;53.594;9.938;2023-04-25T13:39:17;7.70;99.90
15452;DHT22;7827;53.594;9.938;2023-04-25T13:41:45;8.00;99.90
15452;DHT22;7827;53.594;9.938;2023-04-25T13:44:15;8.50;99.90
15452;DHT22;7827;53.594;9.938;2023-04-25T13:46:45;8.50;99.90
15452;DHT22;7827;53.594;9.938;2023-04-25T13:49:14;8.00;99.90
15452;DHT22;7827;53.594;9.938;2023-04-25T13:51:42;7.70;1.00
15452;DHT22;7827;53.594;9.938;2023-04-25T13:54:11;7.10;99.90
15452;DHT22;7827;53.594;9.938;2023-04-25T13:56:40;6.70;1.00
15452;DHT22;7827;53.594;9.938;2023-04-25T13:59:09;6.50;95.90
15452;DHT22;7827;53.594;9.938;2023-04-25T14:01:39;6.50;99.90
15452;DHT22;7827;53.594;9.938;2023-04-25T14:04:08;6.70;1.00
15452;DHT22;7827;53.594;9.938;2023-04-25T14:06:37;6.90;1.00
15452;DHT22;7827;53.594;9.938;2023-04-25T14:09:05;7.00;99.90
15452;DHT22;7827;53.594;9.938;2023-04-25T14:11:37;7.20;1.00
15452;DHT22;7827;53.594;9.938;2023-04-25T14:14:05;7.50;55.20
15452;DHT22;7827;53.594;9.938;2023-04-25T14:16:33;7.70;1.00
15452;DHT22;7827;53.594;9.938;2023-04-25T14:19:03;7.90;1.00
15452;DHT22;7827;53.594;9.938;2023-04-25T14:21:32;8.20;1.00
15452;DHT22;7827;53.594;9.938;2023-04-25T14:24:00;8.30;99.90
15452;DHT22;7827;53.594;9.938;2023-04-25T14:26:29;8.40;1.00
15452;DHT22;7827;53.594;9.938;2023-04-25T14:28:58;8.60;99.90
15452;DHT22;7827;53.594;9.938;2023-04-25T14:31:26;8.70;1.00
15452;DHT22;7827;53.594;9.938;2023-04-25T14:33:55;8.80;1.00
15452;DHT22;7827;53.594;9.938;2023-04-25T14:36:28;8.80;1.00
15452;DHT22;7827;53.594;9.938;2023-04-25T14:38:57;8.90;1.00
15452;DHT22;7827;53.594;9.938;2023-04-25T14:41:26;8.90;1.00
15452;DHT22;7827;53.594;9.938;2023-04-25T14:43:55;8.90;1.00
15452;DHT22;7827;53.594;9.938;2023-04-25T14:46:23;8.80;1.00
15452;DHT22;7827;53.594;9.938;2023-04-25T14:48:52;8.70;1.00
15452;DHT22;7827;53.594;9.938;2023-04-25T14:51:22;8.70;1.00
15452;DHT22;7827;53.594;9.938;2023-04-25T14:53:52;8.90;1.00
15452;DHT22;7827;53.594;9.938;2023-04-25T14:56:21;9.10;1.00
15452;DHT22;7827;53.594;9.938;2023-04-25T14:58:52;9.30;99.90
15452;DHT22;7827;53.594;9.938;2023-04-25T15:01:20;9.30;99.90
15452;DHT22;7827;53.594;9.938;2023-04-25T15:03:50;9.20;99.90
15452;DHT22;7827;53.594;9.938;2023-04-25T15:06:19;9.00;1.00
15452;DHT22;7827;53.594;9.938;2023-04-25T15:08:48;8.90;10.60
15452;DHT22;7827;53.594;9.938;2023-04-25T15:11:20;8.90;5.40
15452;DHT22;7827;53.594;9.938;2023-04-25T15:13:49;8.90;99.90
15452;DHT22;7827;53.594;9.938;2023-04-25T15:16:17;8.90;1.00
15452;DHT22;7827;53.594;9.938;2023-04-25T15:18:46;8.90;1.00
15452;DHT22;7827;53.594;9.938;2023-04-25T15:21:14;9.00;1.00
15452;DHT22;7827;53.594;9.938;2023-04-25T15:23:43;9.00;99.90
15452;DHT22;7827;53.594;9.938;2023-04-25T15:26:12;9.10;99.90
15452;DHT22;7827;53.594;9.938;2023-04-25T15:28:41;9.00;1.00
15452;DHT22;7827;53.594;9.938;2023-04-25T15:31:10;9.00;99.90
15452;DHT22;7827;53.594;9.938;2023-04-25T15:33:38;9.10;99.90
15452;DHT22;7827;53.594;9.938;2023-04-25T15:36:07;9.30;99.90
15452;DHT22;7827;53.594;9.938;2023-04-25T15:38:37;9.50;1.00
15452;DHT22;7827;53.594;9.938;2023-04-25T15:41:05;9.70;1.00
15452;DHT22;7827;53.594;9.938;2023-04-25T15:43:33;9.70;1.00
15452;DHT22;7827;53.594;9.938;2023-04-25T15:46:05;9.70;1.00
15452;DHT22;7827;53.594;9.938;2023-04-25T15:48:34;9.60;99.90
15452;DHT22;7827;53.594;9.938;2023-04-25T15:51:02;9.50;99.90
15452;DHT22;7827;53.594;9.938;2023-04-25T15:53:30;9.30;1.00
15452;DHT22;7827;53.594;9.938;2023-04-25T15:55:59;9.20;1.00
15452;DHT22;7827;53.594;9.938;2023-04-25T15:58:27;9.10;1.00
15452;DHT22;7827;53.594;9.938;2023-04-25T16:00:56;8.80;99.90
15452;DHT22;7827;53.594;9.938;2023-04-25T16:03:26;8.70;99.90
15452;DHT22;7827;53.594;9.938;2023-04-25T16:05:55;8.60;1.00
15452;DHT22;7827;53.594;9.938;2023-04-25T16:08:23;8.70;12.10
15452;DHT22;7827;53.594;9.938;2023-04-25T16:10:55;8.90;99.90
15452;DHT22;7827;53.594;9.938;2023-04-25T16:13:23;9.00;12.60
15452;DHT22;7827;53.594;9.938;2023-04-25T16:15:53;9.00;1.00
15452;DHT22;7827;53.594;9.938;2023-04-25T16:18:21;9.00;1.00
15452;DHT22;7827;53.594;9.938;2023-04-25T16:20:51;9.00;52.50
15452;DHT22;7827;53.594;9.938;2023-04-25T16:23:20;8.90;71.60
15452;DHT22;7827;53.594;9.938;2023-04-25T16:25:48;8.70;99.90
15452;DHT22;7827;53.594;9.938;2023-04-25T16:28:17;8.50;99.90
15452;DHT22;7827;53.594;9.938;2023-04-25T16:30:45;8.60;1.00
15452;DHT22;7827;53.594;9.938;2023-04-25T16:33:14;8.70;99.90
15452;DHT22;7827;53.594;9.938;2023-04-25T16:35:42;8.80;1.00
15452;DHT22;7827;53.594;9.938;2023-04-25T16:38:12;8.90;1.00
15452;DHT22;7827;53.594;9.938;2023-04-25T16:40:40;8.90;99.90